Time;durP1;ratioP1;P1;durP2;ratioP2;P2;SDS_P1;SDS_P2;PMS_P1;PMS_P2;Temp;Humidity;BMP_temperature;BMP_pressure;BME280_temperature;BME280_humidity;BME280_pressure;Samples;Min_cycle;Max_cycle;Signal;HPM_P1;HPM_P2
2022/05/18 00:00:50;;;;;;;21.40;19.38;;;16.10;88.50;;;;;;5069099;28;20031;-42
2022/05/18 00:03:22;;;;;;;21.38;19.25;;;16.10;88.40;;;;;;5068269;28;20078;-45
2022/05/18 00:05:48;;;;;;;21.20;19.00;;;16.10;88.40;;;;;;5051901;28;20033;-43
2022/05/18 00:08:14;;;;;;;21.40;19.13;;;16.20;88.50;;;;;;5069389;28;20463;-45
2022/05/18 00:10:42;;;;;;;21.95;19.85;;;16.20;88.50;;;;;;5069336;28;20039;-44
2022/05/18 00:13:11;;;;;;;30.48;21.08;;;16.20;88.40;;;;;;5051597;28;20017;-43
2022/05/18 00:15:37;;;;;;;20.73;18.60;;;16.20;88.30;;;;;;5069195;28;20052;-44
2022/05/18 00:18:04;;;;;;;20.23;18.23;;;16.20;88.30;;;;;;5068139;28;20035;-44
2022/05/18 00:20:30;;;;;;;21.73;19.70;;;16.20;88.40;;;;;;5069239;28;20043;-43
2022/05/18 00:23:01;;;;;;;21.73;19.73;;;16.20;88.40;;;;;;5051799;28;20040;-44
2022/05/18 00:25:29;;;;;;;21.95;19.65;;;16.20;88.40;;;;;;5069038;28;20038;-44
2022/05/18 00:27:57;;;;;;;21.08;19.13;;;16.20;88.40;;;;;;5069132;28;20036;-43
2022/05/18 00:30:25;;;;;;;19.90;17.95;;;16.20;88.40;;;;;;5051406;28;20033;-45
2022/05/18 00:32:53;;;;;;;21.75;19.50;;;16.20;88.40;;;;;;5068590;28;20031;-43
2022/05/18 00:35:22;;;;;;;21.77;19.67;;;16.20;88.40;;;;;;5051428;28;20094;-44
2022/05/18 00:37:48;;;;;;;24.75;18.02;;;16.20;88.30;;;;;;5068590;28;20053;-43
2022/05/18 00:40:16;;;;;;;20.15;17.45;;;16.20;88.30;;;;;;5069087;28;20043;-44
2022/05/18 00:42:42;;;;;;;19.95;17.85;;;16.20;88.40;;;;;;5068025;28;20098;-43
2022/05/18 00:45:09;;;;;;;21.02;18.90;;;16.20;88.50;;;;;;5068158;28;20025;-45
2022/05/18 00:47:35;;;;;;;21.17;19.27;;;16.20;88.40;;;;;;5050304;28;20036;-47
2022/05/18 00:50:13;;;;;;;19.98;18.23;;;16.20;88.50;;;;;;5064594;28;20087;-44
2022/05/18 00:53:05;;;;;;;18.58;16.60;;;16.20;88.50;;;;;;5048130;28;20025;-44
2022/05/18 00:55:34;;;;;;;19.73;17.92;;;16.20;88.50;;;;;;5048437;28;20029;-43
2022/05/18 00:58:39;;;;;;;20.98;19.13;;;16.20;88.50;;;;;;5048687;28;20075;-44
2022/05/18 01:01:07;;;;;;;19.45;17.65;;;16.20;88.50;;;;;;5030748;28;20168;-45
2022/05/18 01:03:39;;;;;;;18.25;16.48;;;16.20;88.50;;;;;;5048560;28;20041;-46
2022/05/18 01:06:34;;;;;;;20.23;18.25;;;16.20;88.40;;;;;;5066013;28;20445;-45
2022/05/18 01:09:13;;;;;;;20.58;18.38;;;16.20;88.50;;;;;;5048408;28;20021;-44
2022/05/18 01:11:39;;;;;;;20.08;18.27;;;16.20;88.60;;;;;;5048601;28;20074;-43
2022/05/18 01:14:13;;;;;;;20.70;18.70;;;16.20;88.60;;;;;;5048166;28;20377;-44
2022/05/18 01:16:38;;;;;;;18.95;17.17;;;16.20;88.60;;;;;;5048336;28;20033;-44
2022/05/18 01:19:11;;;;;;;19.45;17.58;;;16.20;88.60;;;;;;5048322;28;20044;-43
2022/05/18 01:21:51;;;;;;;19.98;18.08;;;16.20;88.50;;;;;;5052504;28;20033;-46
2022/05/18 01:24:33;;;;;;;19.35;17.13;;;16.20;88.50;;;;;;5056588;28;20043;-46
2022/05/18 01:27:01;;;;;;;19.85;18.05;;;16.30;88.50;;;;;;5058545;28;20434;-43
2022/05/18 01:29:31;;;;;;;19.25;17.35;;;16.20;88.60;;;;;;5058428;28;20037;-44
2022/05/18 01:32:03;;;;;;;20.10;18.00;;;16.20;88.60;;;;;;5038627;28;20087;-43
2022/05/18 01:34:32;;;;;;;23.25;17.65;;;16.20;88.60;;;;;;5041842;28;20082;-45
2022/05/18 01:37:00;;;;;;;23.15;18.50;;;16.20;88.60;;;;;;5050517;28;20048;-43
2022/05/18 01:39:46;;;;;;;18.42;16.60;;;16.20;88.60;;;;;;5067740;28;20063;-44
2022/05/18 01:42:17;;;;;;;19.17;17.27;;;16.30;88.60;;;;;;5033853;28;20036;-47
2022/05/18 01:44:42;;;;;;;19.15;17.30;;;16.30;88.60;;;;;;5066470;28;20120;-44
2022/05/18 01:47:09;;;;;;;17.60;15.93;;;16.20;88.50;;;;;;5067566;28;20103;-43
2022/05/18 01:49:38;;;;;;;18.50;16.73;;;16.30;88.50;;;;;;5049732;28;20381;-44
2022/05/18 01:52:07;;;;;;;19.58;17.75;;;16.30;88.40;;;;;;5068051;28;20032;-43
2022/05/18 01:54:38;;;;;;;19.05;17.10;;;16.30;88.50;;;;;;5069579;28;20060;-44
2022/05/18 01:57:04;;;;;;;16.75;15.05;;;16.30;88.50;;;;;;5072103;28;20038;-44
2022/05/18 01:59:30;;;;;;;18.83;16.95;;;16.30;88.30;;;;;;5071337;28;20036;-43
2022/05/18 02:01:55;;;;;;;18.30;16.48;;;16.40;88.30;;;;;;5071464;28;20033;-44
2022/05/18 02:04:21;;;;;;;20.38;18.35;;;16.40;88.30;;;;;;5037549;28;20458;-44
2022/05/18 02:06:48;;;;;;;18.02;16.33;;;16.40;88.30;;;;;;5071565;28;20337;-46
2022/05/18 02:09:16;;;;;;;17.58;15.98;;;16.40;88.30;;;;;;5071556;28;20453;-44
2022/05/18 02:11:43;;;;;;;18.95;16.95;;;16.40;88.30;;;;;;5071699;28;20392;-45
2022/05/18 02:14:09;;;;;;;18.58;16.45;;;16.40;88.20;;;;;;5071587;28;20041;-44
2022/05/18 02:16:36;;;;;;;19.90;17.92;;;16.40;88.20;;;;;;5071247;28;20030;-44
2022/05/18 02:19:02;;;;;;;19.52;17.58;;;16.40;88.00;;;;;;5071355;28;20028;-44
2022/05/18 02:21:28;;;;;;;18.60;16.73;;;16.40;88.10;;;;;;5071352;28;20314;-44
2022/05/18 02:23:56;;;;;;;19.05;17.35;;;16.40;88.00;;;;;;5071544;28;20043;-44
2022/05/18 02:26:23;;;;;;;19.05;17.15;;;16.50;88.10;;;;;;5053573;28;20445;-45
2022/05/18 02:28:49;;;;;;;17.85;16.05;;;16.40;88.10;;;;;;5070956;28;20071;-45
2022/05/18 02:31:15;;;;;;;18.98;17.05;;;16.40;88.10;;;;;;5070896;28;20461;-45
2022/05/18 02:33:41;;;;;;;19.13;17.15;;;16.50;88.10;;;;;;5052921;28;20357;-43
2022/05/18 02:36:10;;;;;;;18.73;16.92;;;16.40;88.10;;;;;;5053039;28;20082;-44
2022/05/18 02:38:37;;;;;;;20.80;17.85;;;16.50;88.00;;;;;;5070364;28;20161;-45
2022/05/18 02:41:03;;;;;;;18.70;16.95;;;16.50;88.00;;;;;;5070781;28;20503;-47
2022/05/18 02:43:37;;;;;;;18.80;16.92;;;16.50;88.00;;;;;;5052823;28;20024;-45
2022/05/18 02:46:10;;;;;;;19.25;16.90;;;16.50;88.00;;;;;;5070926;28;20035;-48
2022/05/18 02:48:37;;;;;;;18.13;16.23;;;16.50;87.90;;;;;;5053015;28;20025;-44
2022/05/18 02:51:06;;;;;;;22.52;17.25;;;16.50;87.80;;;;;;5070566;28;20036;-44
2022/05/18 02:53:32;;;;;;;19.07;17.27;;;16.60;87.80;;;;;;5037268;28;20479;-45
2022/05/18 02:56:06;;;;;;;18.42;16.38;;;16.50;87.80;;;;;;5070525;28;20258;-46
2022/05/18 02:58:37;;;;;;;18.60;16.70;;;16.50;87.80;;;;;;5071182;28;20035;-44
2022/05/18 03:01:07;;;;;;;19.23;17.23;;;16.40;87.90;;;;;;5069445;28;20029;-44
2022/05/18 03:03:36;;;;;;;18.50;16.60;;;16.40;88.00;;;;;;5070039;28;20705;-43
2022/05/18 03:06:05;;;;;;;16.95;15.15;;;16.40;88.00;;;;;;5059255;28;20020;-45
2022/05/18 03:08:33;;;;;;;20.05;17.88;;;16.40;88.00;;;;;;5070721;28;20393;-45
2022/05/18 03:10:58;;;;;;;18.02;16.42;;;16.30;88.10;;;;;;5070214;28;20445;-46
2022/05/18 03:13:26;;;;;;;19.15;17.25;;;16.40;88.20;;;;;;5052781;28;20050;-44
2022/05/18 03:15:52;;;;;;;19.35;17.52;;;16.30;88.10;;;;;;5070457;28;20035;-44
2022/05/18 03:18:18;;;;;;;19.08;17.17;;;16.30;88.20;;;;;;5070406;28;20025;-47
2022/05/18 03:23:34;;;;;;;19.92;17.88;;;16.20;88.30;;;;;;5070353;28;20086;-44
2022/05/18 03:26:12;;;;;;;18.75;17.10;;;16.20;88.40;;;;;;5070198;28;20016;-46
2022/05/18 03:28:41;;;;;;;18.88;17.05;;;16.20;88.40;;;;;;5070113;28;20028;-48
2022/05/18 03:31:07;;;;;;;19.25;17.25;;;16.20;88.40;;;;;;5070021;28;20054;-44
2022/05/18 03:33:33;;;;;;;18.63;16.65;;;16.10;88.60;;;;;;5069752;28;20028;-44
2022/05/18 03:35:59;;;;;;;18.50;16.70;;;16.10;88.60;;;;;;5070098;28;20101;-44
2022/05/18 03:38:26;;;;;;;20.70;18.63;;;16.00;88.70;;;;;;5069675;28;20056;-44
2022/05/18 03:40:54;;;;;;;19.80;17.88;;;16.10;88.70;;;;;;5069652;28;20101;-48
2022/05/18 03:43:20;;;;;;;18.63;16.83;;;16.00;88.70;;;;;;5052190;28;20048;-44
2022/05/18 03:45:47;;;;;;;18.90;17.10;;;16.00;88.70;;;;;;5069583;28;20044;-44
2022/05/18 03:48:13;;;;;;;19.35;17.63;;;16.00;88.80;;;;;;5052382;28;20030;-44
2022/05/18 03:50:42;;;;;;;18.80;17.13;;;16.00;88.80;;;;;;5069642;28;20025;-51
2022/05/18 03:53:09;;;;;;;18.60;16.90;;;16.10;88.80;;;;;;5069379;28;20405;-48
2022/05/18 03:55:38;;;;;;;18.85;17.05;;;16.10;88.80;;;;;;5069455;28;20060;-43
2022/05/18 03:58:04;;;;;;;20.27;18.17;;;16.00;88.80;;;;;;5069955;28;20029;-46
2022/05/18 04:00:30;;;;;;;21.08;17.38;;;16.10;88.80;;;;;;5069439;28;20032;-44
2022/05/18 04:02:56;;;;;;;17.52;15.77;;;16.00;88.70;;;;;;5069793;28;20021;-46
2022/05/18 04:05:22;;;;;;;16.92;15.32;;;16.00;88.70;;;;;;5068417;28;20032;-44
2022/05/18 04:07:48;;;;;;;19.85;17.83;;;16.00;88.70;;;;;;5069303;28;20036;-44
2022/05/18 04:10:17;;;;;;;18.58;16.83;;;16.00;88.70;;;;;;5069453;28;20038;-44
2022/05/18 04:12:47;;;;;;;16.67;15.07;;;16.00;88.80;;;;;;5069511;28;20122;-46
2022/05/18 04:15:16;;;;;;;20.17;18.08;;;16.00;88.80;;;;;;5069083;28;20262;-46
2022/05/18 04:17:43;;;;;;;19.77;17.85;;;16.00;88.80;;;;;;5068381;28;20033;-44
2022/05/18 04:20:09;;;;;;;17.08;15.20;;;16.00;88.90;;;;;;5068173;28;20021;-45
2022/05/18 04:22:36;;;;;;;17.27;15.57;;;16.00;88.90;;;;;;5069147;28;20043;-44
2022/05/18 04:25:04;;;;;;;19.75;17.27;;;15.90;88.90;;;;;;5068788;28;20055;-45
2022/05/18 04:27:29;;;;;;;20.10;18.05;;;16.00;88.90;;;;;;5051057;28;20058;-46
2022/05/18 04:29:55;;;;;;;20.15;17.67;;;16.00;89.00;;;;;;5034093;28;20415;-44
2022/05/18 04:32:21;;;;;;;22.85;17.80;;;15.90;89.00;;;;;;5068644;28;20507;-44
2022/05/18 04:34:48;;;;;;;18.75;17.05;;;15.90;89.10;;;;;;5056772;28;20493;-44
2022/05/18 04:37:15;;;;;;;19.45;17.45;;;15.90;89.20;;;;;;5048827;28;20059;-43
2022/05/18 04:39:40;;;;;;;19.05;17.10;;;15.90;89.20;;;;;;5068182;28;20040;-45
2022/05/18 04:42:06;;;;;;;19.67;17.80;;;15.90;89.20;;;;;;5068470;28;20041;-45
2022/05/18 04:44:34;;;;;;;18.15;16.25;;;16.00;89.30;;;;;;5050460;28;20028;-44
2022/05/18 04:47:02;;;;;;;19.73;17.83;;;16.10;89.20;;;;;;5067871;28;20051;-45
2022/05/18 04:49:28;;;;;;;18.63;16.80;;;16.20;89.00;;;;;;5066369;28;20480;-44
2022/05/18 04:51:56;;;;;;;20.60;16.67;;;16.20;88.90;;;;;;5066729;28;20066;-44
2022/05/18 04:54:22;;;;;;;19.15;17.10;;;16.30;88.90;;;;;;5082605;28;20073;-45
2022/05/18 04:56:47;;;;;;;20.27;18.10;;;16.30;88.70;;;;;;5058533;28;20036;-44
2022/05/18 04:59:13;;;;;;;18.02;16.30;;;16.30;88.60;;;;;;5063237;28;20853;-45
2022/05/18 05:01:42;;;;;;;18.38;16.67;;;16.40;88.50;;;;;;5045633;28;20059;-44
2022/05/18 05:04:09;;;;;;;;;;;16.40;88.50;;;;;;5067649;28;20030;-44
2022/05/18 05:06:39;;;;;;;17.45;15.73;;;16.40;88.40;;;;;;5067236;28;20365;-49
2022/05/18 05:09:05;;;;;;;18.85;17.08;;;16.40;88.40;;;;;;5072166;28;20028;-44
2022/05/18 05:11:34;;;;;;;18.33;16.48;;;16.50;88.40;;;;;;5067085;28;20048;-43
2022/05/18 05:14:02;;;;;;;18.30;16.55;;;16.50;88.10;;;;;;5052363;28;20089;-45
2022/05/18 05:16:29;;;;;;;18.40;16.48;;;16.50;88.00;;;;;;5063341;28;20081;-51
2022/05/18 05:18:56;;;;;;;18.85;16.95;;;16.50;88.00;;;;;;5067710;28;20032;-44
2022/05/18 05:21:22;;;;;;;18.38;16.65;;;16.60;88.10;;;;;;5083611;28;20165;-47
2022/05/18 05:23:47;;;;;;;18.63;16.83;;;16.60;88.00;;;;;;5067709;28;20064;-47
2022/05/18 05:26:13;;;;;;;18.63;16.83;;;16.60;88.00;;;;;;5066113;28;20505;-45
2022/05/18 05:28:40;;;;;;;17.45;15.63;;;16.70;87.90;;;;;;5066096;28;20444;-47
2022/05/18 05:31:08;;;;;;;18.73;17.02;;;16.80;87.90;;;;;;5068043;28;20040;-49
2022/05/18 05:33:40;;;;;;;19.60;17.80;;;16.90;87.70;;;;;;5047749;28;20096;-46
2022/05/18 05:36:10;;;;;;;17.70;15.80;;;17.00;87.50;;;;;;5051699;28;20024;-48
2022/05/18 05:38:36;;;;;;;17.70;15.93;;;17.20;87.10;;;;;;5050973;28;20134;-44
2022/05/18 05:41:02;;;;;;;17.05;15.38;;;17.40;86.70;;;;;;5067148;28;20456;-47
2022/05/18 05:43:31;;;;;;;18.15;16.45;;;17.60;85.90;;;;;;5066906;28;20394;-45
2022/05/18 05:46:01;;;;;;;17.05;14.65;;;17.70;85.50;;;;;;5048805;28;20029;-43
2022/05/18 05:48:30;;;;;;;16.38;14.02;;;17.90;84.70;;;;;;5065889;28;20108;-48
2022/05/18 05:50:57;;;;;;;;;;;18.10;84.50;;;;;;5066348;28;20020;-48
2022/05/18 05:53:23;;;;;;;14.75;13.10;;;18.20;84.20;;;;;;5066037;28;19918;-45
2022/05/18 05:55:48;;;;;;;15.05;13.65;;;18.20;83.90;;;;;;5066047;28;20021;-45
2022/05/18 05:58:18;;;;;;;15.75;13.43;;;18.30;83.60;;;;;;5066865;28;20437;-47
2022/05/18 06:00:44;;;;;;;;;;;18.30;83.40;;;;;;5048804;28;20479;-45
2022/05/18 06:03:09;;;;;;;15.65;14.05;;;18.30;83.40;;;;;;5064881;28;19908;-45
2022/05/18 06:05:35;;;;;;;14.05;12.45;;;18.30;83.40;;;;;;5048139;28;20028;-46
2022/05/18 06:08:00;;;;;;;14.52;13.05;;;18.40;83.50;;;;;;5048305;28;20361;-45
2022/05/18 06:10:26;;;;;;;14.90;13.50;;;18.40;83.00;;;;;;5062435;28;20119;-45
2022/05/18 06:12:51;;;;;;;14.70;13.23;;;18.40;83.10;;;;;;5050524;28;20060;-48
2022/05/18 06:15:17;;;;;;;13.98;12.60;;;18.40;83.30;;;;;;5062236;28;20036;-46
2022/05/18 06:17:45;;;;;;;15.85;13.38;;;18.50;82.70;;;;;;5066187;28;20568;-45
2022/05/18 06:20:11;;;;;;;14.65;13.23;;;18.50;82.60;;;;;;5066441;28;20037;-47
2022/05/18 06:22:37;;;;;;;13.38;12.05;;;18.60;82.70;;;;;;5066407;28;20099;-46
2022/05/18 06:25:04;;;;;;;17.00;14.38;;;18.60;82.50;;;;;;5058872;28;20856;-48
2022/05/18 06:27:29;;;;;;;14.30;12.90;;;18.60;82.60;;;;;;5057743;28;20101;-46
2022/05/18 06:29:55;;;;;;;15.05;12.88;;;18.70;82.40;;;;;;5051301;28;20045;-45
2022/05/18 06:32:20;;;;;;;14.65;13.18;;;18.70;82.40;;;;;;5056449;28;20036;-45
2022/05/18 06:34:46;;;;;;;14.65;13.18;;;18.80;82.30;;;;;;5058192;28;20032;-44
2022/05/18 06:37:12;;;;;;;13.30;11.90;;;18.80;82.50;;;;;;5066322;28;20529;-46
2022/05/18 06:39:39;;;;;;;14.90;13.40;;;18.90;82.70;;;;;;5047187;28;20520;-45
2022/05/18 06:42:05;;;;;;;14.13;12.65;;;18.90;82.00;;;;;;5032905;28;20362;-47
2022/05/18 06:44:31;;;;;;;13.40;11.82;;;18.90;81.80;;;;;;5064526;28;20029;-47
2022/05/18 06:47:03;;;;;;;14.30;12.90;;;19.10;82.20;;;;;;5049764;28;20428;-45
2022/05/18 06:49:31;;;;;;;14.60;13.15;;;19.10;81.90;;;;;;5049726;28;20025;-45
2022/05/18 06:51:57;;;;;;;13.25;11.80;;;19.10;82.30;;;;;;5030929;28;20043;-51
2022/05/18 06:54:22;;;;;;;14.68;13.18;;;19.20;82.10;;;;;;5058912;28;20020;-48
2022/05/18 06:56:48;;;;;;;14.40;12.90;;;19.30;81.50;;;;;;5049057;28;20119;-48
2022/05/18 06:59:18;;;;;;;17.83;13.85;;;19.40;81.20;;;;;;5048963;28;20033;-48
2022/05/18 07:01:44;;;;;;;13.68;11.88;;;19.40;80.90;;;;;;5049248;28;20033;-48
2022/05/18 07:04:10;;;;;;;14.27;12.88;;;19.40;81.20;;;;;;5069299;28;20047;-47
2022/05/18 07:06:38;;;;;;;14.40;12.65;;;19.50;80.80;;;;;;5069346;28;20033;-50
2022/05/18 07:09:08;;;;;;;15.82;12.27;;;19.50;81.20;;;;;;5068977;28;20099;-48
2022/05/18 07:11:36;;;;;;;;;;;19.50;80.20;;;;;;5049997;28;20030;-47
2022/05/18 07:14:03;;;;;;;14.60;10.52;;;19.70;79.60;;;;;;5049564;28;19908;-48
2022/05/18 07:16:31;;;;;;;18.67;10.73;;;19.70;79.10;;;;;;5049282;28;20124;-48
2022/05/18 07:18:58;;;;;;;12.48;11.25;;;20.00;79.50;;;;;;5049171;28;20031;-46
2022/05/18 07:21:26;;;;;;;16.13;11.60;;;20.30;78.60;;;;;;5049272;28;20480;-47
2022/05/18 07:23:53;;;;;;;9.67;8.67;;;20.60;77.70;;;;;;5048541;28;20441;-49
2022/05/18 07:26:29;;;;;;;12.88;10.18;;;21.00;76.90;;;;;;5031037;28;20071;-46
2022/05/18 07:28:55;;;;;;;10.98;9.98;;;21.40;74.60;;;;;;5049155;28;20025;-50
2022/05/18 07:31:24;;;;;;;12.82;10.18;;;21.80;74.00;;;;;;5048546;28;20096;-45
2022/05/18 07:33:52;;;;;;;12.20;9.38;;;22.20;72.60;;;;;;5031553;28;20409;-48
2022/05/18 07:36:23;;;;;;;9.70;8.70;;;22.60;70.90;;;;;;5028268;28;20026;-51
2022/05/18 07:38:50;;;;;;;11.68;10.07;;;23.10;69.60;;;;;;5055274;28;20052;-45
2022/05/18 07:41:16;;;;;;;15.52;9.68;;;23.50;68.10;;;;;;5035422;28;20077;-48
2022/05/18 07:43:45;;;;;;;11.43;9.68;;;23.70;67.30;;;;;;5067666;28;20028;-49
2022/05/18 07:46:11;;;;;;;11.00;9.88;;;23.80;67.20;;;;;;5068681;28;20034;-47
2022/05/18 07:48:40;;;;;;;10.38;9.38;;;23.90;66.90;;;;;;5068539;28;20047;-47
2022/05/18 07:51:05;;;;;;;10.77;9.67;;;24.20;65.70;;;;;;5050669;28;20028;-47
2022/05/18 07:53:35;;;;;;;13.13;8.77;;;24.40;63.80;;;;;;5038100;28;20033;-48
2022/05/18 07:56:01;;;;;;;10.25;9.25;;;24.50;63.90;;;;;;5067081;28;20115;-50
2022/05/18 07:58:27;;;;;;;10.30;8.68;;;24.70;63.80;;;;;;5068376;28;20120;-47
2022/05/18 08:00:52;;;;;;;9.90;8.25;;;24.70;61.70;;;;;;5068970;28;20450;-45
2022/05/18 08:03:18;;;;;;;8.90;8.00;;;24.70;62.60;;;;;;5068363;28;20017;-45
2022/05/18 08:05:45;;;;;;;11.70;8.05;;;25.10;62.90;;;;;;5070541;28;20028;-45
2022/05/18 08:08:22;;;;;;;8.85;7.88;;;25.50;61.70;;;;;;5054502;28;20171;-47
2022/05/18 08:16:17;;;;;;;8.98;6.70;;;25.90;58.80;;;;;;5062528;28;20059;-48
2022/05/18 08:18:45;;;;;;;11.40;8.10;;;26.20;58.80;;;;;;5068098;28;20026;-48
2022/05/18 08:21:11;;;;;;;10.98;8.55;;;26.20;57.70;;;;;;5068329;28;20067;-48
2022/05/18 08:23:39;;;;;;;10.38;8.23;;;25.80;59.20;;;;;;5050571;28;20060;-48
2022/05/18 08:26:05;;;;;;;9.32;8.38;;;26.00;59.30;;;;;;5058783;28;20039;-49
2022/05/18 08:28:32;;;;;;;9.40;8.38;;;26.30;58.60;;;;;;5067862;28;20024;-48
2022/05/18 08:30:58;;;;;;;11.10;8.93;;;26.50;57.90;;;;;;5067911;28;20038;-46
2022/05/18 08:33:28;;;;;;;10.35;8.93;;;26.50;58.00;;;;;;5049842;28;20025;-50
2022/05/18 08:35:55;;;;;;;;;;;26.40;58.20;;;;;;5068139;28;20033;-47
2022/05/18 08:38:22;;;;;;;10.13;8.20;;;26.60;59.50;;;;;;5067346;28;19926;-49
2022/05/18 08:40:58;;;;;;;8.57;7.63;;;26.60;58.50;;;;;;5067889;28;20111;-48
2022/05/18 08:43:33;;;;;;;12.15;9.43;;;26.90;59.00;;;;;;5067604;28;20020;-49
2022/05/18 08:46:09;;;;;;;9.25;7.85;;;27.20;57.70;;;;;;5067294;28;20032;-50
2022/05/18 08:49:05;;;;;;;9.57;8.57;;;27.10;57.30;;;;;;5067970;28;20113;-48
2022/05/18 08:51:45;;;;;;;10.85;8.40;;;26.90;57.60;;;;;;5073411;28;20448;-47
2022/05/18 08:54:25;;;;;;;12.15;9.25;;;27.00;57.70;;;;;;5067031;28;20039;-51
2022/05/18 08:56:53;;;;;;;10.55;9.18;;;27.30;57.50;;;;;;5067624;28;20461;-48
2022/05/18 08:59:24;;;;;;;10.63;8.18;;;27.20;57.10;;;;;;5066961;28;20110;-51
2022/05/18 09:01:57;;;;;;;9.95;7.88;;;27.00;55.50;;;;;;5056794;28;20029;-49
2022/05/18 09:04:31;;;;;;;6.90;5.60;;;26.80;57.20;;;;;;5062730;28;20032;-46
2022/05/18 09:07:05;;;;;;;11.10;6.75;;;27.10;59.70;;;;;;5059483;28;20033;-50
2022/05/18 09:12:27;;;;;;;8.50;7.22;;;26.90;55.70;;;;;;5066039;28;20563;-46
2022/05/18 09:14:53;;;;;;;8.18;6.28;;;26.90;58.30;;;;;;5062911;28;20060;-48
2022/05/18 09:17:40;;;;;;;9.48;6.95;;;27.20;56.30;;;;;;5071134;28;20044;-47
2022/05/18 09:20:12;;;;;;;10.35;7.18;;;27.60;55.40;;;;;;5069886;28;20025;-49
2022/05/18 09:22:58;;;;;;;9.25;7.07;;;27.90;54.80;;;;;;5064591;28;20077;-46
2022/05/18 09:25:48;;;;;;;9.30;8.07;;;27.60;54.90;;;;;;5056312;28;20373;-44
2022/05/18 09:28:49;;;;;;;8.57;6.30;;;27.70;54.90;;;;;;5063757;28;20032;-47
2022/05/18 09:31:39;;;;;;;12.95;6.63;;;27.70;54.20;;;;;;5062412;28;20245;-48
2022/05/18 09:34:23;;;;;;;8.82;6.65;;;27.60;55.20;;;;;;5066274;28;20037;-50
2022/05/18 09:37:36;;;;;;;9.80;6.28;;;27.40;54.90;;;;;;5048798;28;20517;-47
2022/05/18 09:40:06;;;;;;;8.73;6.35;;;27.70;57.10;;;;;;4995007;28;20120;-47
2022/05/18 09:42:35;;;;;;;12.30;6.68;;;27.70;54.80;;;;;;4987772;28;20168;-48
2022/05/18 09:45:09;;;;;;;8.68;7.28;;;28.00;54.80;;;;;;5021644;28;20128;-50
2022/05/18 09:47:50;;;;;;;11.88;7.25;;;27.90;54.00;;;;;;5057061;28;20466;-51
2022/05/18 09:50:31;;;;;;;9.00;6.43;;;28.20;52.80;;;;;;5046821;28;20029;-49
2022/05/18 09:52:58;;;;;;;15.13;6.63;;;28.20;52.80;;;;;;5054749;28;20029;-46
2022/05/18 09:55:26;;;;;;;8.20;6.00;;;28.40;53.00;;;;;;5063136;28;20025;-47
2022/05/18 09:57:57;;;;;;;7.70;6.88;;;28.60;52.00;;;;;;5054711;28;20509;-47
2022/05/18 10:00:26;;;;;;;8.98;6.75;;;28.80;50.30;;;;;;5046012;28;20036;-49
2022/05/18 10:08:35;;;;;;;7.25;6.10;;;28.60;51.90;;;;;;5045946;28;20039;-49
2022/05/18 10:11:05;;;;;;;7.95;5.88;;;28.80;50.70;;;;;;5045888;28;20331;-49
2022/05/18 10:13:54;;;;;;;6.97;5.10;;;28.90;53.40;;;;;;5044958;28;20032;-45
2022/05/18 10:16:48;;;;;;;8.52;5.03;;;28.90;52.60;;;;;;5049065;28;20095;-50
2022/05/18 10:19:27;;;;;;;8.65;5.60;;;29.30;50.50;;;;;;5043901;28;20036;-52
2022/05/18 10:21:52;;;;;;;8.93;7.47;;;29.30;50.60;;;;;;5054550;28;20414;-48
2022/05/18 10:24:35;;;;;;;8.80;7.63;;;29.20;50.10;;;;;;5060138;28;20028;-49
2022/05/18 10:27:16;;;;;;;8.77;5.05;;;29.30;50.60;;;;;;5052686;28;20088;-50
2022/05/18 10:29:51;;;;;;;10.02;6.72;;;29.20;50.20;;;;;;5055938;28;20123;-46
2022/05/18 10:32:29;;;;;;;8.40;6.22;;;29.30;49.60;;;;;;5045519;28;20429;-44
2022/05/18 10:34:57;;;;;;;7.68;5.20;;;29.10;48.30;;;;;;5048756;28;20487;-48
2022/05/18 10:37:36;;;;;;;7.85;4.43;;;29.00;47.30;;;;;;5050239;28;20036;-47
2022/05/18 10:40:18;;;;;;;6.63;4.75;;;29.10;48.10;;;;;;5023043;28;20047;-51
2022/05/18 10:42:54;;;;;;;6.53;5.03;;;29.20;47.70;;;;;;5046441;28;20912;-49
2022/05/18 10:45:37;;;;;;;7.93;4.75;;;29.30;48.50;;;;;;5048493;28;20023;-45
2022/05/18 10:48:22;;;;;;;7.65;5.43;;;29.40;46.50;;;;;;5049556;28;20412;-48
2022/05/18 10:50:49;;;;;;;6.45;4.15;;;29.50;44.70;;;;;;5048565;28;20039;-49
2022/05/18 10:53:17;;;;;;;7.85;4.05;;;29.90;48.00;;;;;;5048305;28;20397;-46
2022/05/18 10:55:58;;;;;;;6.40;4.07;;;29.80;46.70;;;;;;5048984;28;20025;-49
2022/05/18 10:58:45;;;;;;;6.47;3.80;;;29.70;45.40;;;;;;5048552;28;20017;-49
2022/05/18 11:01:10;;;;;;;8.25;4.22;;;29.80;43.50;;;;;;5048547;28;20017;-46
2022/05/18 11:04:04;;;;;;;4.28;2.85;;;29.60;44.10;;;;;;5049088;28;20031;-48
2022/05/18 11:06:37;;;;;;;9.32;3.72;;;30.00;45.40;;;;;;5024387;28;20128;-48
2022/05/18 11:09:18;;;;;;;6.55;4.00;;;30.10;44.40;;;;;;5050066;28;20063;-47
2022/05/18 11:12:06;;;;;;;7.47;3.30;;;29.80;43.00;;;;;;5047974;28;20048;-52
2022/05/18 11:14:52;;;;;;;5.13;3.55;;;30.00;44.20;;;;;;5048597;28;20027;-49
2022/05/18 11:17:34;;;;;;;6.07;3.53;;;29.70;41.70;;;;;;5040562;28;20067;-46
2022/05/18 11:20:43;;;;;;;7.25;3.83;;;29.90;42.80;;;;;;5046342;28;20065;-47
2022/05/18 11:23:27;;;;;;;;;;;29.70;42.30;;;;;;5044035;28;20107;-46
2022/05/18 11:26:11;;;;;;;6.85;3.30;;;29.30;44.00;;;;;;5049138;28;20007;-46
2022/05/18 11:29:06;;;;;;;6.72;3.90;;;29.20;43.60;;;;;;5047467;28;20041;-46
2022/05/18 11:31:38;;;;;;;6.13;3.28;;;29.30;45.10;;;;;;5049158;28;20672;-49
2022/05/18 11:34:27;;;;;;;8.77;3.53;;;29.40;45.30;;;;;;5048457;28;20025;-47
2022/05/18 11:37:08;;;;;;;6.90;3.35;;;29.60;47.90;;;;;;5047987;28;20049;-49
2022/05/18 11:40:04;;;;;;;6.22;2.58;;;29.70;46.10;;;;;;5048200;28;20055;-49
2022/05/18 11:42:58;;;;;;;5.35;2.95;;;29.80;44.10;;;;;;5068845;28;20042;-46
2022/05/18 11:45:47;;;;;;;4.47;2.88;;;29.80;45.00;;;;;;5069049;28;20032;-46
2022/05/18 11:48:35;;;;;;;;;;;29.90;45.00;;;;;;5069377;28;20123;-51
2022/05/18 11:51:07;;;;;;;5.90;2.50;;;29.90;44.10;;;;;;5068548;28;19913;-47
2022/05/18 11:53:50;;;;;;;7.25;3.00;;;29.90;45.80;;;;;;5068157;28;20028;-50
2022/05/18 11:56:19;;;;;;;4.07;2.35;;;29.70;42.40;;;;;;5068934;28;20503;-46
2022/05/18 11:59:14;;;;;;;8.60;2.55;;;29.60;42.40;;;;;;5068645;28;20032;-49
2022/05/18 12:02:14;;;;;;;5.47;2.10;;;29.50;42.80;;;;;;5068158;28;20040;-45
2022/05/18 12:05:22;;;;;;;6.00;1.65;;;29.60;44.30;;;;;;5068063;28;20029;-47
2022/05/18 12:08:45;;;;;;;4.38;1.70;;;29.50;42.50;;;;;;5067400;28;20040;-47
2022/05/18 12:11:29;;;;;;;5.22;2.67;;;29.30;42.50;;;;;;4997506;28;20034;-48
2022/05/18 12:14:18;;;;;;;5.38;1.98;;;29.30;42.00;;;;;;4993233;28;20040;-50
2022/05/18 12:17:16;;;;;;;3.38;1.83;;;29.20;42.70;;;;;;5055506;28;20075;-52
2022/05/18 12:20:04;;;;;;;4.95;2.33;;;29.20;42.60;;;;;;5048641;28;20058;-50
2022/05/18 12:22:35;;;;;;;4.55;1.92;;;29.10;42.70;;;;;;5068143;28;20036;-47
2022/05/18 12:25:02;;;;;;;5.63;1.98;;;28.90;44.00;;;;;;5064920;28;20045;-50
2022/05/18 12:27:28;;;;;;;5.25;2.17;;;28.90;43.10;;;;;;5068030;28;20028;-49
2022/05/18 12:29:57;;;;;;;5.60;1.70;;;28.80;43.30;;;;;;5068283;28;20032;-49
2022/05/18 12:32:23;;;;;;;5.63;2.40;;;29.00;48.50;;;;;;5066769;28;20028;-47
2022/05/18 12:35:13;;;;;;;2.80;1.35;;;29.30;42.90;;;;;;5050864;28;20421;-47
2022/05/18 12:37:51;;;;;;;4.43;2.10;;;29.30;43.80;;;;;;5066726;28;20040;-51
2022/05/18 12:40:31;;;;;;;3.45;1.52;;;29.10;41.90;;;;;;5057353;28;20025;-49
2022/05/18 12:43:17;;;;;;;3.55;1.70;;;29.00;42.60;;;;;;5064875;28;20343;-51
2022/05/18 12:45:49;;;;;;;7.93;2.67;;;29.30;41.40;;;;;;5050842;28;20113;-47
2022/05/18 12:48:35;;;;;;;7.00;1.90;;;29.40;42.70;;;;;;5066617;28;20036;-47
2022/05/18 12:51:05;;;;;;;5.40;1.67;;;29.80;39.10;;;;;;5067163;28;20107;-46
2022/05/18 12:53:54;;;;;;;2.83;1.30;;;30.10;39.00;;;;;;5053856;28;20106;-48
2022/05/18 12:56:24;;;;;;;3.47;1.85;;;30.20;41.30;;;;;;5056287;28;20048;-48
2022/05/18 12:58:59;;;;;;;2.38;1.25;;;29.90;40.60;;;;;;5049848;28;20073;-48
2022/05/18 13:01:29;;;;;;;3.78;2.17;;;29.80;39.10;;;;;;5066307;28;20492;-51
2022/05/18 13:03:59;;;;;;;7.10;3.95;;;29.60;42.40;;;;;;5049766;28;20143;-48
2022/05/18 13:06:39;;;;;;;7.45;4.18;;;29.10;46.80;;;;;;5048469;28;20029;-48
2022/05/18 13:09:34;;;;;;;6.63;4.30;;;28.60;48.10;;;;;;5065874;28;20076;-51
2022/05/18 13:12:27;;;;;;;8.18;3.53;;;28.20;47.80;;;;;;5049999;28;20129;-51
2022/05/18 13:14:58;;;;;;;6.82;4.22;;;27.90;48.30;;;;;;5053375;28;20028;-47
2022/05/18 13:17:39;;;;;;;5.45;3.55;;;27.90;48.30;;;;;;5049277;28;20112;-49